createdAt,value
2023-05-05T00:00:14.965Z,1865.00
2023-05-05T00:01:14.986Z,1862.00
2023-05-05T00:02:14.988Z,1868.00
2023-05-05T00:03:15.038Z,1863.00
2023-05-05T00:04:15.014Z,1864.00
2023-05-05T00:05:14.935Z,1864.00
2023-05-05T00:06:14.930Z,1858.00
2023-05-05T00:07:14.917Z,1860.00
2023-05-05T00:08:14.916Z,1861.00
2023-05-05T00:09:14.916Z,1858.00
2023-05-05T00:10:14.915Z,1839.00
2023-05-05T00:11:14.901Z,1835.00
2023-05-05T00:12:14.923Z,1840.00
2023-05-05T00:13:14.941Z,1843.00
2023-05-05T00:14:14.877Z,1829.00
2023-05-05T00:15:14.893Z,1818.00
2023-05-05T00:16:14.884Z,1833.00
2023-05-05T00:17:14.909Z,1832.00
2023-05-05T00:18:14.863Z,1811.00
2023-05-05T00:19:14.866Z,1835.00
2023-05-05T00:20:14.849Z,1819.00
2023-05-05T00:21:14.846Z,1824.00
2023-05-05T00:22:14.829Z,1824.00
2023-05-05T00:23:14.844Z,1826.00
2023-05-05T00:24:14.843Z,1818.00
2023-05-05T00:25:14.817Z,1827.00
2023-05-05T00:26:14.797Z,1831.00
2023-05-05T00:27:14.799Z,1808.00
2023-05-05T00:28:14.818Z,1816.00
2023-05-05T00:29:14.860Z,1823.00
2023-05-05T00:30:14.862Z,1818.00
2023-05-05T00:31:14.899Z,1826.00
2023-05-05T00:32:14.881Z,1810.00
2023-05-05T00:33:14.959Z,1835.00
2023-05-05T00:34:14.899Z,1829.00
2023-05-05T00:35:14.916Z,1831.00
2023-05-05T00:36:14.979Z,1818.00
2023-05-05T00:37:14.956Z,1812.00
2023-05-05T00:38:14.954Z,1823.00
2023-05-05T00:39:14.962Z,1825.00
2023-05-05T00:40:14.943Z,1825.00
2023-05-05T00:41:14.954Z,1825.00
2023-05-05T00:42:14.996Z,1826.00
2023-05-05T00:43:14.962Z,1825.00
2023-05-05T00:44:14.922Z,1827.00
2023-05-05T00:45:14.937Z,1836.00
2023-05-05T00:46:14.965Z,1840.00
2023-05-05T00:47:14.917Z,1826.00
2023-05-05T00:48:14.914Z,1829.00
2023-05-05T00:49:14.922Z,1830.00
2023-05-05T00:50:14.889Z,1832.00
2023-05-05T00:51:14.924Z,1857.00
2023-05-05T00:52:14.888Z,1826.00
2023-05-05T00:53:14.878Z,1836.00
2023-05-05T00:54:14.864Z,1814.00
2023-05-05T00:55:14.874Z,1847.00
2023-05-05T00:56:14.840Z,1840.00
2023-05-05T00:57:14.902Z,1811.00
2023-05-05T00:58:14.864Z,1816.00
2023-05-05T00:59:14.840Z,1827.00
2023-05-05T01:00:14.828Z,1828.00
2023-05-05T01:01:14.863Z,1798.00
2023-05-05T01:02:14.822Z,1798.00
2023-05-05T01:03:14.874Z,1794.00
2023-05-05T01:04:14.804Z,1788.00
2023-05-05T01:05:14.814Z,1781.00
2023-05-05T01:06:14.789Z,1766.00
2023-05-05T01:07:14.806Z,1764.00
2023-05-05T01:08:14.785Z,1775.00
2023-05-05T01:09:14.786Z,1772.00
2023-05-05T01:10:20.119Z,1768.00
2023-05-05T01:11:15.764Z,1769.00
2023-05-05T01:12:14.753Z,1771.00
2023-05-05T01:13:14.767Z,1763.00
2023-05-05T01:14:14.782Z,1768.00
2023-05-05T01:15:14.744Z,1749.00
2023-05-05T01:16:14.807Z,1763.00
2023-05-05T01:17:14.755Z,1757.00
2023-05-05T01:18:14.733Z,1762.00
2023-05-05T01:19:14.730Z,1741.00
2023-05-05T01:20:14.721Z,1738.00
2023-05-05T01:21:14.743Z,1748.00
2023-05-05T01:22:14.710Z,1751.00
2023-05-05T01:23:14.699Z,1748.00
2023-05-05T01:24:14.714Z,1739.00
2023-05-05T01:25:14.691Z,1737.00
2023-05-05T01:26:14.673Z,1739.00
2023-05-05T01:27:14.675Z,1745.00
2023-05-05T01:28:14.674Z,1741.00
2023-05-05T01:29:14.674Z,1738.00
2023-05-05T01:30:14.663Z,1725.00
2023-05-05T01:31:14.734Z,1721.00
2023-05-05T01:32:14.649Z,1722.00
2023-05-05T01:33:14.684Z,1717.00
2023-05-05T01:34:14.641Z,1724.00
2023-05-05T01:35:14.654Z,1708.00
2023-05-05T01:36:14.621Z,1709.00
2023-05-05T01:37:14.631Z,1685.00
2023-05-05T01:38:14.626Z,1695.00
2023-05-05T01:39:14.627Z,1696.00
2023-05-05T01:40:14.640Z,1693.00
2023-05-05T01:41:14.662Z,1694.00
2023-05-05T01:42:14.676Z,1689.00
2023-05-05T01:43:14.693Z,1686.00
2023-05-05T01:44:14.706Z,1665.00
2023-05-05T01:45:14.734Z,1677.00
2023-05-05T01:46:14.878Z,1673.00
2023-05-05T01:47:14.735Z,1668.00
2023-05-05T01:48:14.759Z,1661.00
2023-05-05T01:49:14.770Z,1670.00
2023-05-05T01:50:14.789Z,1684.00
2023-05-05T01:51:14.794Z,1687.00
2023-05-05T01:52:14.817Z,1669.00
2023-05-05T01:53:14.843Z,1672.00
2023-05-05T01:54:14.884Z,1677.00
2023-05-05T01:55:14.920Z,1674.00
2023-05-05T01:56:14.992Z,1676.00
2023-05-05T01:57:15.008Z,1673.00
2023-05-05T01:58:15.032Z,1668.00
2023-05-05T01:59:15.085Z,1678.00
2023-05-05T02:00:15.072Z,1654.00
2023-05-05T02:01:15.096Z,1672.00
2023-05-05T02:02:15.072Z,1654.00
2023-05-05T02:03:15.331Z,1656.00
2023-05-05T02:04:15.102Z,1639.00
2023-05-05T02:05:15.142Z,1637.00
2023-05-05T02:06:15.158Z,1660.00
2023-05-05T02:07:15.145Z,1627.00
2023-05-05T02:08:15.167Z,1641.00
2023-05-05T02:09:15.192Z,1640.00
2023-05-05T02:10:15.181Z,1640.00
2023-05-05T02:11:15.164Z,1640.00
2023-05-05T02:12:15.200Z,1640.00
2023-05-05T02:13:15.359Z,1641.00
2023-05-05T02:14:15.164Z,1642.00
2023-05-05T02:15:15.176Z,1631.00
2023-05-05T02:16:15.190Z,1624.00
2023-05-05T02:17:15.161Z,1606.00
2023-05-05T02:18:15.177Z,1610.00
2023-05-05T02:19:15.190Z,1589.00
2023-05-05T02:20:15.141Z,1601.00
2023-05-05T02:21:15.161Z,1606.00
2023-05-05T02:22:15.130Z,1594.00
2023-05-05T02:23:15.137Z,1568.00
2023-05-05T02:24:15.132Z,1566.00
2023-05-05T02:25:15.112Z,1581.00
2023-05-05T02:26:15.099Z,1568.00
2023-05-05T02:27:15.100Z,1563.00
2023-05-05T02:28:15.118Z,1562.00
2023-05-05T02:29:15.079Z,1563.00
2023-05-05T02:30:15.080Z,1547.00
2023-05-05T02:31:15.082Z,1545.00
2023-05-05T02:32:15.067Z,1534.00
2023-05-05T02:33:15.101Z,1521.00
2023-05-05T02:34:15.094Z,1531.00
2023-05-05T02:35:15.117Z,1524.00
2023-05-05T02:36:15.169Z,1516.00
2023-05-05T02:37:15.167Z,1509.00
2023-05-05T02:38:15.184Z,1494.00
2023-05-05T02:39:15.193Z,1493.00
2023-05-05T02:40:15.193Z,1478.00
2023-05-05T02:41:15.226Z,1492.00
2023-05-05T02:42:15.275Z,1481.00
2023-05-05T02:43:15.312Z,1484.00
2023-05-05T02:44:15.258Z,1476.00
2023-05-05T02:45:15.287Z,1485.00
2023-05-05T02:46:15.317Z,1473.00
2023-05-05T02:47:15.302Z,1467.00
2023-05-05T02:48:15.352Z,1472.00
2023-05-05T02:49:15.320Z,1471.00
2023-05-05T02:50:15.356Z,1472.00
2023-05-05T02:51:15.517Z,1462.00
2023-05-05T02:52:15.370Z,1447.00
2023-05-05T02:53:15.405Z,1452.00
2023-05-05T02:54:15.469Z,1466.00
2023-05-05T02:55:15.455Z,1457.00
2023-05-05T02:56:15.454Z,1436.00
2023-05-05T02:57:15.474Z,1450.00
2023-05-05T02:58:15.483Z,1445.00
2023-05-05T02:59:16.303Z,1449.00
2023-05-05T03:00:15.497Z,1439.00
2023-05-05T03:01:15.559Z,1436.00
2023-05-05T03:02:15.563Z,1436.00
2023-05-05T03:03:15.687Z,1461.00
2023-05-05T03:04:15.577Z,1439.00
2023-05-05T03:05:15.582Z,1447.00
2023-05-05T03:06:15.618Z,1448.00
2023-05-05T03:07:15.660Z,1416.00
2023-05-05T03:08:15.708Z,1423.00
2023-05-05T03:09:15.746Z,1424.00
2023-05-05T03:10:15.846Z,1434.00
2023-05-05T03:11:15.804Z,1432.00
2023-05-05T03:12:15.858Z,1439.00
2023-05-05T03:13:15.928Z,1413.00
2023-05-05T03:14:15.866Z,1401.00
2023-05-05T03:15:15.876Z,1408.00
2023-05-05T03:16:15.932Z,1411.00
2023-05-05T03:17:15.909Z,1397.00
2023-05-05T03:18:15.930Z,1388.00
2023-05-05T03:19:15.949Z,1387.00
2023-05-05T03:20:15.982Z,1395.00
2023-05-05T03:21:16.005Z,1399.00
2023-05-05T03:22:16.031Z,1404.00
2023-05-05T03:23:16.003Z,1404.00
2023-05-05T03:24:15.983Z,1404.00
2023-05-05T03:25:15.990Z,1398.00
2023-05-05T03:26:16.012Z,1410.00
2023-05-05T03:27:16.000Z,1421.00
2023-05-05T03:28:16.005Z,1411.00
2023-05-05T03:29:16.027Z,1405.00
2023-05-05T03:30:15.994Z,1403.00
2023-05-05T03:31:16.088Z,1399.00
2023-05-05T03:32:16.009Z,1399.00
2023-05-05T03:33:16.006Z,1400.00
2023-05-05T03:34:15.978Z,1387.00
2023-05-05T03:35:15.990Z,1387.00
2023-05-05T03:36:15.973Z,1395.00
2023-05-05T03:37:15.962Z,1399.00
2023-05-05T03:38:15.976Z,1386.00
2023-05-05T03:39:15.955Z,1401.00
2023-05-05T03:40:15.946Z,1390.00
2023-05-05T03:41:15.946Z,1377.00
2023-05-05T03:42:15.943Z,1381.00
2023-05-05T03:43:15.955Z,1384.00
2023-05-05T03:44:15.946Z,1374.00
2023-05-05T03:45:15.952Z,1372.00
2023-05-05T03:46:16.134Z,1375.00
2023-05-05T03:47:16.067Z,1370.00
2023-05-05T03:48:16.123Z,1381.00
2023-05-05T03:49:16.173Z,1373.00
2023-05-05T03:50:16.196Z,1390.00
2023-05-05T03:51:16.205Z,1367.00
2023-05-05T03:52:16.243Z,1372.00
2023-05-05T03:53:16.288Z,1378.00
2023-05-05T03:54:16.307Z,1374.00
2023-05-05T03:55:16.345Z,1366.00
2023-05-05T03:56:16.366Z,1375.00
2023-05-05T03:57:16.383Z,1363.00
2023-05-05T03:58:16.403Z,1366.00
2023-05-05T03:59:16.416Z,1363.00
2023-05-05T04:00:16.433Z,1377.00
2023-05-05T04:01:16.429Z,1359.00
2023-05-05T04:02:18.473Z,1356.00
2023-05-05T04:03:16.649Z,1365.00
2023-05-05T04:04:16.535Z,1374.00
2023-05-05T04:05:16.555Z,1353.00
2023-05-05T04:06:16.547Z,1373.00
2023-05-05T04:07:16.591Z,1364.00
2023-05-05T04:08:16.597Z,1365.00
2023-05-05T04:09:16.624Z,1369.00
2023-05-05T04:10:16.621Z,1373.00
2023-05-05T04:11:16.644Z,1356.00
2023-05-05T04:12:16.663Z,1373.00
2023-05-05T04:13:16.845Z,1378.00
2023-05-05T04:14:16.718Z,1380.00
2023-05-05T04:15:16.748Z,1394.00
2023-05-05T04:16:16.795Z,1378.00
2023-05-05T04:17:16.789Z,1376.00
2023-05-05T04:18:16.826Z,1386.00
2023-05-05T04:19:16.834Z,1384.00
2023-05-05T04:20:16.872Z,1374.00
2023-05-05T04:21:16.888Z,1376.00
2023-05-05T04:22:16.904Z,1383.00
2023-05-05T04:23:16.918Z,1377.00
2023-05-05T04:24:16.948Z,1378.00
2023-05-05T04:25:16.959Z,1372.00
2023-05-05T04:26:16.991Z,1388.00
2023-05-05T04:27:17.013Z,1383.00
2023-05-05T04:28:17.329Z,1388.00
2023-05-05T04:29:17.047Z,1387.00
2023-05-05T04:30:17.080Z,1409.00
2023-05-05T04:31:17.141Z,1406.00
2023-05-05T04:32:17.108Z,1394.00
2023-05-05T04:33:17.145Z,1388.00
2023-05-05T04:34:17.160Z,1382.00
2023-05-05T04:35:17.169Z,1403.00
2023-05-05T04:36:17.200Z,1371.00
2023-05-05T04:37:17.235Z,1391.00
2023-05-05T04:38:17.275Z,1378.00
2023-05-05T04:39:17.239Z,1388.00
2023-05-05T04:40:17.266Z,1373.00
2023-05-05T04:41:17.316Z,1372.00
2023-05-05T04:42:17.302Z,1389.00
2023-05-05T04:43:17.329Z,1370.00
2023-05-05T04:44:17.349Z,1371.00
2023-05-05T04:45:17.357Z,1361.00
2023-05-05T04:46:17.482Z,1368.00
2023-05-05T04:47:17.436Z,1378.00
2023-05-05T04:48:17.441Z,1383.00
2023-05-05T04:49:17.461Z,1372.00
2023-05-05T04:50:17.580Z,1380.00
2023-05-05T04:51:17.497Z,1386.00
2023-05-05T04:52:17.509Z,1372.00
2023-05-05T04:53:17.539Z,1381.00
2023-05-05T04:54:17.578Z,1390.00
2023-05-05T04:55:17.575Z,1374.00
2023-05-05T04:56:17.607Z,1380.00
2023-05-05T04:57:17.609Z,1359.00
2023-05-05T04:58:17.647Z,1378.00
2023-05-05T04:59:17.654Z,1378.00
2023-05-05T05:00:17.697Z,1374.00
2023-05-05T05:01:17.697Z,1375.00
2023-05-05T05:02:17.837Z,1377.00
2023-05-05T05:03:17.835Z,1383.00
2023-05-05T05:04:17.768Z,1367.00
2023-05-05T05:05:17.779Z,1357.00
2023-05-05T05:06:17.790Z,1356.00
2023-05-05T05:07:17.839Z,1354.00
2023-05-05T05:08:17.813Z,1348.00
2023-05-05T05:09:17.836Z,1344.00
2023-05-05T05:10:17.856Z,1340.00
2023-05-05T05:11:17.884Z,1340.00
2023-05-05T05:12:17.892Z,1344.00
2023-05-05T05:13:18.010Z,1354.00
2023-05-05T05:14:17.960Z,1353.00
2023-05-05T05:15:17.954Z,1336.00
2023-05-05T05:16:18.013Z,1328.00
2023-05-05T05:17:17.991Z,1333.00
2023-05-05T05:18:18.118Z,1332.00
2023-05-05T05:19:18.040Z,1314.00
2023-05-05T05:20:18.060Z,1311.00
2023-05-05T05:21:18.107Z,1312.00
2023-05-05T05:22:18.103Z,1317.00
2023-05-05T05:23:18.169Z,1325.00
2023-05-05T05:24:18.142Z,1330.00
2023-05-05T05:25:18.186Z,1340.00
2023-05-05T05:26:18.222Z,1341.00
2023-05-05T05:27:18.187Z,1344.00
2023-05-05T05:28:18.152Z,1353.00
2023-05-05T05:29:18.156Z,1372.00
2023-05-05T05:30:18.148Z,1400.00
2023-05-05T05:31:18.148Z,1427.00
2023-05-05T05:32:18.132Z,1455.00
2023-05-05T05:33:18.130Z,1453.00
2023-05-05T05:34:18.142Z,1456.00
2023-05-05T05:35:18.115Z,1490.00
2023-05-05T05:36:18.146Z,1525.00
2023-05-05T05:37:18.096Z,1550.00
2023-05-05T05:38:18.105Z,1588.00
2023-05-05T05:39:18.109Z,1641.00
2023-05-05T05:40:18.121Z,1684.00
2023-05-05T05:41:18.091Z,1741.00
2023-05-05T05:42:18.081Z,1795.00
2023-05-05T05:43:18.065Z,1852.00
2023-05-05T05:44:18.071Z,1913.00
2023-05-05T05:45:18.089Z,1983.00
2023-05-05T05:46:18.102Z,2077.00
2023-05-05T05:47:18.259Z,2121.00
2023-05-05T05:48:18.078Z,2124.00
2023-05-05T05:49:18.058Z,2191.00
2023-05-05T05:50:18.043Z,2237.00
2023-05-05T05:51:18.028Z,2229.00
2023-05-05T05:52:18.019Z,2229.00
2023-05-05T05:53:18.013Z,2207.00
2023-05-05T05:54:18.018Z,1971.00
2023-05-05T05:55:18.026Z,1695.00
2023-05-05T05:56:17.985Z,1484.00
2023-05-05T05:57:18.069Z,1235.00
2023-05-05T05:58:17.987Z,1087.00
2023-05-05T05:59:17.965Z,855.00
2023-05-05T06:00:17.965Z,731.00
2023-05-05T06:01:18.001Z,661.00
2023-05-05T06:02:18.005Z,620.00
2023-05-05T06:03:18.039Z,590.00
2023-05-05T06:04:18.012Z,641.00
2023-05-05T06:05:17.935Z,642.00
2023-05-05T06:06:17.933Z,669.00
2023-05-05T06:07:17.942Z,707.00
2023-05-05T06:08:17.967Z,673.00
2023-05-05T06:09:17.986Z,651.00
2023-05-05T06:10:27.566Z,640.00
2023-05-05T06:11:19.045Z,640.00
2023-05-05T06:12:17.917Z,649.00
2023-05-05T06:13:17.961Z,694.00
2023-05-05T06:14:18.890Z,839.00
2023-05-05T06:15:17.924Z,1080.00
2023-05-05T06:16:17.957Z,1158.00
2023-05-05T06:17:17.921Z,1222.00
2023-05-05T06:18:18.032Z,1347.00
2023-05-05T06:19:17.884Z,1460.00
2023-05-05T06:20:17.889Z,1551.00
2023-05-05T06:21:17.871Z,1636.00
2023-05-05T06:22:17.857Z,1712.00
2023-05-05T06:23:17.904Z,1790.00
2023-05-05T06:24:17.813Z,1793.00
2023-05-05T06:25:17.838Z,1812.00
2023-05-05T06:26:17.795Z,1860.00
2023-05-05T06:27:17.806Z,1967.00
2023-05-05T06:28:17.769Z,2150.00
2023-05-05T06:29:17.752Z,2275.00
2023-05-05T06:30:17.796Z,2361.00
2023-05-05T06:31:17.874Z,2477.00
2023-05-05T06:32:17.844Z,2567.00
2023-05-05T06:33:17.923Z,2651.00
2023-05-05T06:34:17.945Z,2724.00
2023-05-05T06:35:17.984Z,2790.00
2023-05-05T06:36:18.082Z,2842.00
2023-05-05T06:37:18.102Z,2867.00
2023-05-05T06:38:18.135Z,2918.00
2023-05-05T06:39:18.205Z,2970.00
2023-05-05T06:40:18.231Z,2982.00
2023-05-05T06:41:18.272Z,3022.00
2023-05-05T06:42:18.325Z,3061.00
2023-05-05T06:43:18.400Z,3080.00
2023-05-05T06:44:18.483Z,3085.00
2023-05-05T06:45:18.417Z,3096.00
2023-05-05T06:46:18.575Z,3097.00
2023-05-05T06:47:18.505Z,3105.00
2023-05-05T06:48:18.480Z,3106.00
2023-05-05T06:49:18.478Z,3108.00
2023-05-05T06:50:18.448Z,3101.00
2023-05-05T06:51:18.436Z,3108.00
2023-05-05T06:52:18.449Z,3106.00
2023-05-05T06:53:18.380Z,3105.00
2023-05-05T06:54:19.196Z,3104.00
2023-05-05T06:55:18.355Z,3104.00
2023-05-05T06:56:18.339Z,3071.00
2023-05-05T06:57:18.371Z,3034.00
2023-05-05T06:58:18.456Z,3010.00
2023-05-05T06:59:18.692Z,3004.00
2023-05-05T07:00:18.540Z,3051.00
2023-05-05T07:01:18.675Z,3003.00
2023-05-05T07:02:19.024Z,2931.00
2023-05-05T07:03:19.785Z,2977.00
2023-05-05T07:04:18.722Z,3008.00
2023-05-05T07:05:18.617Z,2997.00
2023-05-05T07:06:18.773Z,2936.00
2023-05-05T07:07:18.753Z,2894.00
2023-05-05T07:08:18.804Z,2902.00
2023-05-05T07:09:19.312Z,2921.00
2023-05-05T07:10:18.994Z,2903.00
2023-05-05T07:11:19.164Z,2874.00
2023-05-05T07:12:19.084Z,2867.00
2023-05-05T07:13:19.216Z,2836.00
2023-05-05T07:14:20.095Z,2820.00
2023-05-05T07:15:27.345Z,2796.00
2023-05-05T07:16:20.188Z,2792.00
2023-05-05T07:17:19.199Z,2771.00
2023-05-05T07:18:19.159Z,2724.00
2023-05-05T07:19:19.156Z,2711.00
2023-05-05T07:20:19.134Z,2716.00
2023-05-05T07:21:19.164Z,2716.00
2023-05-05T07:22:19.111Z,2685.00
2023-05-05T07:23:19.127Z,2657.00
2023-05-05T07:24:19.091Z,2657.00
2023-05-05T07:25:19.099Z,2642.00
2023-05-05T07:26:19.174Z,2620.00
2023-05-05T07:27:19.170Z,2575.00
2023-05-05T07:28:19.247Z,2604.00
2023-05-05T07:29:19.346Z,2579.00
2023-05-05T07:30:19.859Z,2565.00
2023-05-05T07:31:19.315Z,2565.00
2023-05-05T07:32:19.445Z,2556.00
2023-05-05T07:33:19.269Z,2556.00
2023-05-05T07:34:19.342Z,2565.00
2023-05-05T07:35:19.259Z,2561.00
2023-05-05T07:36:19.222Z,2532.00
2023-05-05T07:37:19.315Z,2547.00
2023-05-05T07:38:19.180Z,2524.00
2023-05-05T07:39:19.251Z,2464.00
2023-05-05T07:40:19.186Z,2483.00
2023-05-05T07:41:19.147Z,2531.00
2023-05-05T07:42:19.269Z,2534.00
2023-05-05T07:43:19.201Z,2532.00
2023-05-05T07:44:19.271Z,2519.00
2023-05-05T07:45:19.133Z,1929.00
2023-05-05T07:46:19.317Z,1892.00
2023-05-05T07:47:19.084Z,1408.00
2023-05-05T07:48:19.096Z,1183.00
2023-05-05T07:49:19.113Z,1216.00
2023-05-05T07:50:19.028Z,985.00
2023-05-05T07:51:19.056Z,907.00
2023-05-05T07:52:21.481Z,858.00
2023-05-05T07:53:20.198Z,689.00
2023-05-05T07:54:19.060Z,597.00
2023-05-05T07:55:18.984Z,594.00
2023-05-05T07:56:20.465Z,516.00
2023-05-05T07:57:18.941Z,509.00
2023-05-05T07:58:19.056Z,518.00
2023-05-05T07:59:19.204Z,538.00
2023-05-05T08:00:19.016Z,490.00
2023-05-05T08:01:19.009Z,432.00
2023-05-05T08:02:19.184Z,407.00
2023-05-05T08:03:19.083Z,400.00
2023-05-05T08:04:19.003Z,400.00
2023-05-05T08:05:18.891Z,400.00
2023-05-05T08:06:18.861Z,400.00
2023-05-05T08:07:18.954Z,400.00
2023-05-05T08:08:19.851Z,400.00
2023-05-05T08:09:18.884Z,400.00
2023-05-05T08:10:18.932Z,403.00
2023-05-05T08:11:18.939Z,400.00
2023-05-05T08:12:18.897Z,400.00
2023-05-05T08:13:19.346Z,400.00
2023-05-05T08:14:18.972Z,400.00
2023-05-05T08:15:19.001Z,400.00
2023-05-05T08:16:18.901Z,400.00
2023-05-05T08:17:18.910Z,400.00
2023-05-05T08:18:18.851Z,414.00
2023-05-05T08:19:28.576Z,400.00
2023-05-05T08:20:19.803Z,400.00
2023-05-05T08:21:18.961Z,400.00
2023-05-05T08:22:18.942Z,400.00
2023-05-05T08:23:18.883Z,400.00
2023-05-05T08:24:18.853Z,400.00
2023-05-05T08:25:18.879Z,400.00
2023-05-05T08:26:18.852Z,442.00
2023-05-05T08:27:18.912Z,510.00
2023-05-05T08:28:18.986Z,511.00
2023-05-05T08:29:18.836Z,529.00
2023-05-05T08:30:18.856Z,529.00
2023-05-05T08:31:18.859Z,535.00
2023-05-05T08:32:18.816Z,559.00
2023-05-05T08:33:18.880Z,616.00
2023-05-05T08:34:18.866Z,694.00
2023-05-05T08:35:18.815Z,862.00
2023-05-05T08:36:18.754Z,923.00
2023-05-05T08:37:18.775Z,941.00
2023-05-05T08:38:18.739Z,986.00
2023-05-05T08:39:18.819Z,926.00
2023-05-05T08:40:18.718Z,1058.00
2023-05-05T08:41:18.718Z,1066.00
2023-05-05T08:42:32.874Z,1092.00
2023-05-05T08:43:18.685Z,859.00
2023-05-05T08:44:18.684Z,660.00
2023-05-05T08:45:18.657Z,642.00
2023-05-05T08:46:18.870Z,734.00
2023-05-05T08:47:18.650Z,814.00
2023-05-05T08:48:18.656Z,836.00
2023-05-05T08:49:18.664Z,700.00
2023-05-05T08:50:18.661Z,674.00
2023-05-05T08:51:18.620Z,925.00
2023-05-05T08:52:18.625Z,926.00
2023-05-05T08:53:18.592Z,935.00
2023-05-05T08:54:18.685Z,1062.00
2023-05-05T08:55:18.558Z,1261.00
2023-05-05T08:56:18.559Z,1606.00
2023-05-05T08:57:18.593Z,1806.00
2023-05-05T08:58:18.527Z,2054.00
2023-05-05T08:59:18.531Z,2060.00
2023-05-05T09:00:18.514Z,2100.00
2023-05-05T09:01:18.548Z,2211.00
2023-05-05T09:02:18.610Z,2071.00
2023-05-05T09:03:18.519Z,2110.00
2023-05-05T09:04:18.473Z,2071.00
2023-05-05T09:05:18.460Z,2107.00
2023-05-05T09:06:18.441Z,2183.00
2023-05-05T09:07:18.428Z,2316.00
2023-05-05T09:08:18.376Z,2459.00
2023-05-05T09:09:18.378Z,2536.00
2023-05-05T09:10:18.343Z,2610.00
2023-05-05T09:11:18.339Z,2706.00
2023-05-05T09:12:18.313Z,2646.00
2023-05-05T09:13:18.380Z,2691.00
2023-05-05T09:14:18.349Z,2669.00
2023-05-05T09:15:18.465Z,2484.00
2023-05-05T09:16:18.480Z,2563.00
2023-05-05T09:17:18.425Z,2519.00
2023-05-05T09:18:18.477Z,2545.00
2023-05-05T09:19:18.389Z,2500.00
2023-05-05T09:20:18.371Z,2514.00
2023-05-05T09:21:18.371Z,2607.00
2023-05-05T09:22:18.328Z,2508.00
2023-05-05T09:23:18.343Z,2402.00
2023-05-05T09:24:18.299Z,2294.00
2023-05-05T09:25:18.293Z,2415.00
2023-05-05T09:26:18.274Z,2418.00
2023-05-05T09:27:18.309Z,2371.00
2023-05-05T09:28:18.341Z,2523.00
2023-05-05T09:29:18.423Z,2617.00
2023-05-05T09:30:18.489Z,2668.00
2023-05-05T09:31:18.540Z,2805.00
2023-05-05T09:32:18.525Z,2855.00
2023-05-05T09:33:18.548Z,2833.00
2023-05-05T09:34:18.645Z,2941.00
2023-05-05T09:35:18.602Z,3013.00
2023-05-05T09:36:18.629Z,3083.00
2023-05-05T09:37:18.660Z,3095.00
2023-05-05T09:38:18.673Z,3088.00
2023-05-05T09:39:18.651Z,3088.00
2023-05-05T09:40:18.646Z,3097.00
2023-05-05T09:41:18.569Z,3117.00
2023-05-05T09:42:18.544Z,3125.00
2023-05-05T09:43:19.386Z,3053.00
2023-05-05T09:44:18.502Z,3119.00
2023-05-05T09:45:18.596Z,3260.00
2023-05-05T09:46:18.487Z,3374.00
2023-05-05T09:47:29.080Z,3236.00
2023-05-05T09:48:19.423Z,3190.00
2023-05-05T09:49:18.480Z,3140.00
2023-05-05T09:50:18.976Z,3183.00
2023-05-05T09:51:18.491Z,3253.00
2023-05-05T09:52:18.307Z,3394.00
2023-05-05T09:53:18.285Z,3487.00
2023-05-05T09:54:18.336Z,3561.00
2023-05-05T09:55:18.272Z,3655.00
2023-05-05T09:56:18.252Z,3772.00
2023-05-05T09:57:18.212Z,3895.00
2023-05-05T09:58:18.217Z,4061.00
2023-05-05T09:59:18.163Z,4165.00
2023-05-05T10:00:18.128Z,4249.00
2023-05-05T10:01:18.148Z,4319.00
2023-05-05T10:02:18.093Z,4247.00
2023-05-05T10:03:18.163Z,4211.00
2023-05-05T10:04:18.051Z,4179.00
2023-05-05T10:05:18.106Z,4179.00
2023-05-05T10:06:18.104Z,4223.00
2023-05-05T10:07:17.993Z,4325.00
2023-05-05T10:08:17.986Z,4503.00
2023-05-05T10:09:17.924Z,4506.00
2023-05-05T10:10:17.936Z,4410.00
2023-05-05T10:11:17.891Z,4425.00
2023-05-05T10:12:17.905Z,4566.00
2023-05-05T10:13:17.889Z,4690.00
2023-05-05T10:14:17.839Z,4793.00
2023-05-05T10:15:17.873Z,4895.00
2023-05-05T10:16:17.838Z,4931.00
2023-05-05T10:17:17.756Z,4987.00
2023-05-05T10:18:17.755Z,5074.00
2023-05-05T10:19:17.731Z,5149.00
2023-05-05T10:20:17.946Z,5219.00
2023-05-05T10:21:17.714Z,5243.00
2023-05-05T10:22:17.784Z,5284.00
2023-05-05T10:23:17.705Z,5297.00
2023-05-05T10:24:17.710Z,5319.00
2023-05-05T10:25:17.727Z,5304.00
2023-05-05T10:26:17.695Z,5342.00
2023-05-05T10:27:17.680Z,5344.00
2023-05-05T10:28:17.660Z,5405.00
2023-05-05T10:29:17.662Z,5469.00
2023-05-05T10:30:17.679Z,5473.00
2023-05-05T10:31:25.672Z,5485.00
2023-05-05T10:32:46.674Z,5488.00
2023-05-05T10:34:18.598Z,5491.00
2023-05-05T10:35:17.537Z,5508.00
2023-05-05T10:36:17.566Z,5548.00
2023-05-05T10:37:17.468Z,5604.00
2023-05-05T10:38:17.477Z,5694.00
2023-05-05T10:39:17.400Z,5629.00
2023-05-05T10:40:17.361Z,5583.00
2023-05-05T10:41:17.338Z,5617.00
2023-05-05T10:42:17.341Z,5619.00
2023-05-05T10:43:17.280Z,5639.00
2023-05-05T10:44:17.314Z,5631.00
2023-05-05T10:45:17.253Z,5626.00
2023-05-05T10:46:17.215Z,5648.00
2023-05-05T10:47:17.148Z,5703.00
2023-05-05T10:48:17.191Z,5664.00
2023-05-05T10:49:17.081Z,5596.00
2023-05-05T10:50:17.039Z,5587.00
2023-05-05T10:51:27.394Z,5583.00
2023-05-05T10:52:16.986Z,5569.00
2023-05-05T10:53:16.943Z,5547.00
2023-05-05T10:54:17.086Z,5561.00
2023-05-05T10:55:16.995Z,5551.00
2023-05-05T10:56:16.837Z,5539.00
2023-05-05T10:57:16.839Z,5526.00
2023-05-05T10:58:16.774Z,5526.00
2023-05-05T10:59:16.740Z,5526.00
2023-05-05T11:00:16.712Z,5567.00
2023-05-05T11:01:16.721Z,5566.00
2023-05-05T11:02:16.640Z,5600.00
2023-05-05T11:03:16.697Z,5639.00
2023-05-05T11:04:16.583Z,5626.00
2023-05-05T11:05:16.560Z,5631.00
2023-05-05T11:06:16.503Z,5622.00
2023-05-05T11:07:16.467Z,5636.00
2023-05-05T11:08:16.453Z,5657.00
2023-05-05T11:09:16.411Z,5633.00
2023-05-05T11:10:16.517Z,5544.00
2023-05-05T11:11:16.350Z,5485.00
2023-05-05T11:12:16.351Z,5421.00
2023-05-05T11:13:16.374Z,5338.00
2023-05-05T11:14:16.306Z,5308.00
2023-05-05T11:15:16.285Z,5313.00
2023-05-05T11:16:16.328Z,5329.00
2023-05-05T11:17:16.187Z,5006.00
2023-05-05T11:18:16.190Z,3756.00
2023-05-05T11:19:16.122Z,3311.00
2023-05-05T11:20:16.085Z,3404.00
2023-05-05T11:21:16.096Z,3515.00
2023-05-05T11:22:16.013Z,3520.00
2023-05-05T11:23:16.704Z,3523.00
2023-05-05T11:24:15.945Z,3556.00
2023-05-05T11:25:15.926Z,3630.00
2023-05-05T11:26:15.926Z,3754.00
2023-05-05T11:27:15.849Z,3991.00
2023-05-05T11:28:15.867Z,4097.00
2023-05-05T11:29:15.834Z,4130.00
2023-05-05T11:30:15.784Z,4202.00
2023-05-05T11:31:15.814Z,4264.00
2023-05-05T11:32:15.838Z,4328.00
2023-05-05T11:33:15.655Z,4388.00
2023-05-05T11:34:15.623Z,4446.00
2023-05-05T11:35:15.599Z,4436.00
2023-05-05T11:36:15.592Z,4438.00
2023-05-05T11:37:15.548Z,4458.00
2023-05-05T11:38:15.529Z,4525.00
2023-05-05T11:39:15.477Z,4635.00
2023-05-05T11:40:15.456Z,4733.00
2023-05-05T11:41:15.413Z,4619.00
2023-05-05T11:42:15.475Z,4472.00
2023-05-05T11:43:15.363Z,4361.00
2023-05-05T11:44:15.345Z,4399.00
2023-05-05T11:45:15.303Z,4430.00
2023-05-05T11:46:15.291Z,4412.00
2023-05-05T11:47:15.208Z,4415.00
2023-05-05T11:48:15.217Z,4430.00
2023-05-05T11:49:15.149Z,4365.00
2023-05-05T11:50:15.106Z,4239.00
2023-05-05T11:51:15.068Z,4246.00
2023-05-05T11:52:15.037Z,4223.00
2023-05-05T11:53:14.997Z,4124.00
2023-05-05T11:54:14.971Z,4024.00
2023-05-05T11:55:14.940Z,4002.00
2023-05-05T11:56:14.905Z,3982.00
2023-05-05T11:57:14.878Z,3910.00
2023-05-05T11:58:15.006Z,3853.00
2023-05-05T11:59:14.809Z,3837.00
2023-05-05T12:00:14.780Z,3809.00
2023-05-05T12:01:14.742Z,3899.00
2023-05-05T12:02:14.727Z,3911.00
2023-05-05T12:03:14.749Z,3904.00
2023-05-05T12:04:14.755Z,3929.00
2023-05-05T12:05:14.631Z,3988.00
2023-05-05T12:06:14.595Z,4005.00
2023-05-05T12:07:14.565Z,3955.00
2023-05-05T12:08:14.568Z,3953.00
2023-05-05T12:09:14.516Z,3974.00